Terminal Aerodrome Forecast
Issued by NWS Omaha/Valley, NE

Home | Current Version | Previous Version | Graphics & Text | Print | Product List | Glossary On
Versions: 1 2 3 4 5 6 7 8 9 10 11 12 13 14 15 16 17 18 19 20 21 22 23 24 25 26 27 28 29 30 31 32 33 34 35
000
FTUS43 KOAX 301013 AAA
TAFOFK
TAF AMD
KOFK 301013Z 3010/3106 VRB05KT P6SM SCT100 BKN250
     FM301600 18012KT P6SM BKN100
     FM302000 18012KT P6SM BKN050 PROB30 3021/3103 3SM TSRA BKN035CB
     FM310300 17008KT P6SM BKN040=

USA.gov is the U.S. government's official web portal to all federal, state and local government web resources and services.